Main page
METAR-TAF:

METAR-TAF

Airports :

Balad Air Base

Balad, Iraq

latitude: 33-56N, longitude: 44-22E, elevation: 49 m

Current weather observation

The report was made 6 hours and 1 minutes ago, at 18:55 UTC
Wind 7 kt from the Northwest
Temperature 32°C
Humidity 24%
Pressure 1002 hPa
Visibility: 8000 m
Clear sky
haze

METAR: ORBD 201855Z 31007KT 8000 HZ CLR 32/09 A2960 RMK WND DATA ALSTG ESTMD LAST

Time: 03:56 (00:56 UTC)

Forecast

The report was made 5 hours and 56 minutes ago, at 19:00 UTC
Forecast valid from 20 at 19 UTC to 22 at 01 UTC
Wind 9 kt from the West/Northwest
Visibility: 9000 m
Clear sky
haze
Becoming
from 21 at 07 UTC to 21 at 08 UTC
Wind 10 kt from the West/Northwest with gusts up to 20 kt, varying between West and North/Northwest
Visibility: 2103 m
Clear sky
haze

TAF: ORBD 201900Z 2019/2201 30009KT 9000 HZ SKC QNH2948INS BECMG 2107/2108 30015G20KT 9000 HZ SKC QNH2950INS WND 270V330 WND 30010KT AFT 2115 TX44/2112Z TN26/2102Z LAST NO AMDS AFT 2019 NEXT 2103

Weather observations and forecasts of more than 4000 airports (METAR and TAF reports).

The available stations are represented by yellow and red dots on the map.

Hover mouse over dot to see the name of the station.

Then click to see weather observations and forecasts.

To change the map : click on the green buttons with a black cross to zoom in, on the green button with a dash to zoom out, or on the green arrows for adjacent maps.


METAR-TAF: